createdAt,value
2023-07-25T00:01:15.972Z,2.70
2023-07-25T00:03:43.851Z,2.80
2023-07-25T00:06:12.001Z,2.88
2023-07-25T00:08:40.356Z,2.78
2023-07-25T00:11:15.293Z,3.13
2023-07-25T00:13:43.163Z,2.85
2023-07-25T00:16:11.078Z,2.85
2023-07-25T00:18:38.964Z,2.42
2023-07-25T00:21:06.994Z,2.50
2023-07-25T00:23:34.861Z,2.78
2023-07-25T00:26:02.868Z,2.83
2023-07-25T00:28:32.073Z,2.88
2023-07-25T00:31:06.866Z,2.78
2023-07-25T00:33:34.708Z,2.75
2023-07-25T00:36:02.588Z,3.05
2023-07-25T00:38:30.429Z,2.95
2023-07-25T00:40:58.284Z,3.05
2023-07-25T00:43:27.187Z,3.10
2023-07-25T00:45:56.613Z,2.65
2023-07-25T00:48:24.522Z,3.22
2023-07-25T00:50:53.109Z,3.17
2023-07-25T00:53:21.223Z,2.80
2023-07-25T00:55:50.247Z,3.38
2023-07-25T00:58:20.006Z,3.60
2023-07-25T01:00:47.815Z,3.58
2023-07-25T01:03:17.461Z,3.20
2023-07-25T01:05:49.075Z,3.03
2023-07-25T01:08:16.917Z,3.22
2023-07-25T01:10:44.794Z,3.38
2023-07-25T01:13:12.663Z,3.35
2023-07-25T01:15:41.549Z,3.60
2023-07-25T01:18:10.404Z,3.33
2023-07-25T01:20:39.986Z,3.35
2023-07-25T01:23:09.025Z,3.60
2023-07-25T01:25:38.487Z,3.38
2023-07-25T01:28:06.833Z,3.67
2023-07-25T01:30:34.682Z,2.90
2023-07-25T01:33:02.859Z,3.22
2023-07-25T01:35:30.829Z,3.20
2023-07-25T01:37:58.610Z,3.53
2023-07-25T01:40:26.615Z,3.47
2023-07-25T01:42:55.828Z,3.85
2023-07-25T01:45:23.960Z,3.40
2023-07-25T01:47:51.959Z,3.10
2023-07-25T01:50:19.874Z,3.35
2023-07-25T01:52:47.722Z,3.65
2023-07-25T01:55:15.840Z,3.28
2023-07-25T01:57:43.636Z,3.55
2023-07-25T02:00:13.975Z,3.33
2023-07-25T02:02:42.510Z,2.90
2023-07-25T02:05:10.498Z,3.10
2023-07-25T02:07:39.024Z,3.47
2023-07-25T02:10:07.903Z,3.28
2023-07-25T02:12:35.712Z,2.88
2023-07-25T02:15:03.601Z,3.90
2023-07-25T02:17:32.837Z,3.08
2023-07-25T02:20:00.712Z,3.50
2023-07-25T02:22:28.673Z,3.45
2023-07-25T02:24:56.739Z,3.60
2023-07-25T02:27:25.901Z,3.17
2023-07-25T02:29:53.694Z,3.67
2023-07-25T02:32:21.597Z,3.67
2023-07-25T02:34:50.822Z,3.35
2023-07-25T02:37:18.739Z,3.53
2023-07-25T02:39:46.699Z,3.63
2023-07-25T02:42:14.518Z,3.75
2023-07-25T02:44:42.410Z,3.90
2023-07-25T02:47:10.325Z,3.92
2023-07-25T02:49:39.830Z,3.85
2023-07-25T02:52:09.685Z,3.42
2023-07-25T02:54:37.709Z,3.15
2023-07-25T02:57:06.155Z,3.58
2023-07-25T02:59:34.094Z,3.45
2023-07-25T03:02:02.009Z,3.45
2023-07-25T03:04:31.140Z,3.70
2023-07-25T03:06:58.959Z,3.40
2023-07-25T03:09:28.235Z,3.38
2023-07-25T03:11:56.036Z,3.88
2023-07-25T03:14:23.952Z,3.60
2023-07-25T03:16:51.985Z,4.30
2023-07-25T03:19:19.833Z,3.30
2023-07-25T03:21:47.744Z,3.75
2023-07-25T03:24:15.646Z,3.90
2023-07-25T03:26:44.879Z,3.70
2023-07-25T03:29:12.812Z,3.97
2023-07-25T03:31:40.677Z,4.30
2023-07-25T03:34:08.826Z,3.45
2023-07-25T03:36:36.643Z,3.40
2023-07-25T03:39:05.171Z,3.50
2023-07-25T03:41:33.342Z,3.70
2023-07-25T03:44:03.182Z,3.63
2023-07-25T03:46:31.071Z,4.03
2023-07-25T03:48:59.351Z,3.42
2023-07-25T03:51:27.338Z,3.72
2023-07-25T03:53:55.321Z,3.83
2023-07-25T03:56:23.257Z,3.35
2023-07-25T03:58:51.112Z,3.47
2023-07-25T04:01:20.410Z,3.58
2023-07-25T04:03:48.460Z,3.25
2023-07-25T04:06:16.557Z,3.72
2023-07-25T04:08:44.455Z,3.50
2023-07-25T04:11:14.141Z,3.47
2023-07-25T04:13:42.382Z,4.22
2023-07-25T04:16:10.383Z,3.88
2023-07-25T04:18:39.549Z,3.45
2023-07-25T04:21:07.563Z,3.67
2023-07-25T04:23:35.475Z,3.38
2023-07-25T04:26:03.315Z,3.90
2023-07-25T04:28:32.791Z,4.03
2023-07-25T04:31:00.888Z,3.67
2023-07-25T04:33:28.727Z,3.83
2023-07-25T04:35:57.997Z,3.90
2023-07-25T04:38:26.119Z,3.67
2023-07-25T04:40:53.988Z,4.10
2023-07-25T04:43:22.438Z,3.92
2023-07-25T04:45:54.664Z,3.22
2023-07-25T04:48:23.080Z,3.78
2023-07-25T04:50:50.976Z,3.53
2023-07-25T04:53:20.258Z,3.15
2023-07-25T04:55:48.051Z,3.88
2023-07-25T04:58:16.034Z,3.40
2023-07-25T05:00:43.974Z,3.47
2023-07-25T05:03:11.962Z,3.38
2023-07-25T05:05:39.888Z,3.70
2023-07-25T05:08:07.795Z,3.70
2023-07-25T05:10:37.207Z,3.58
2023-07-25T05:13:05.139Z,3.38
2023-07-25T05:15:33.008Z,3.55
2023-07-25T05:18:00.852Z,3.92
2023-07-25T05:20:28.874Z,4.13
2023-07-25T05:22:56.863Z,3.67
2023-07-25T05:25:24.689Z,3.50
2023-07-25T05:27:53.877Z,3.63
2023-07-25T05:30:21.697Z,3.75
2023-07-25T05:32:51.128Z,3.70
2023-07-25T05:35:19.354Z,3.45
2023-07-25T05:37:47.222Z,3.55
2023-07-25T05:40:15.158Z,3.72
2023-07-25T05:42:43.050Z,3.20
2023-07-25T05:45:12.832Z,3.20
2023-07-25T05:47:40.766Z,3.20
2023-07-25T05:50:09.820Z,3.22
2023-07-25T05:52:37.954Z,3.22
2023-07-25T05:55:06.620Z,3.28
2023-07-25T05:57:34.783Z,3.75
2023-07-25T06:00:03.036Z,3.80
2023-07-25T06:02:32.407Z,3.55
2023-07-25T06:05:00.357Z,3.58
2023-07-25T06:07:28.281Z,3.42
2023-07-25T06:09:56.691Z,3.42
2023-07-25T06:12:24.568Z,3.53
2023-07-25T06:14:52.654Z,3.38
2023-07-25T06:17:20.590Z,2.78
2023-07-25T06:19:49.807Z,3.75
2023-07-25T06:22:17.940Z,3.70
2023-07-25T06:24:45.918Z,3.78
2023-07-25T06:27:13.999Z,3.38
2023-07-25T06:29:41.918Z,3.35
2023-07-25T06:32:10.205Z,3.25
2023-07-25T06:34:38.036Z,3.58
2023-07-25T06:37:08.218Z,3.30
2023-07-25T06:39:36.152Z,2.90
2023-07-25T06:42:05.142Z,3.45
2023-07-25T06:44:33.227Z,3.35
2023-07-25T06:47:01.033Z,3.38
2023-07-25T06:49:28.938Z,3.00
2023-07-25T06:51:57.345Z,3.70
2023-07-25T06:54:27.478Z,3.00
2023-07-25T06:56:55.308Z,3.13
2023-07-25T06:59:23.194Z,3.28
2023-07-25T07:01:51.002Z,3.15
2023-07-25T07:04:18.824Z,3.45
2023-07-25T07:06:46.738Z,3.20
2023-07-25T07:09:14.719Z,3.15
2023-07-25T07:11:43.975Z,2.75
2023-07-25T07:14:11.803Z,3.00
2023-07-25T07:16:39.828Z,2.22
2023-07-25T07:19:08.050Z,3.00
2023-07-25T07:21:36.091Z,3.25
2023-07-25T07:24:03.969Z,3.00
2023-07-25T07:26:34.187Z,2.72
2023-07-25T07:29:03.669Z,3.67
2023-07-25T07:31:31.591Z,2.83
2023-07-25T07:34:11.317Z,2.85
2023-07-25T07:36:39.289Z,2.63
2023-07-25T07:39:10.902Z,2.97
2023-07-25T07:41:38.766Z,3.25
2023-07-25T07:44:14.011Z,2.70
2023-07-25T07:46:42.039Z,2.42
2023-07-25T07:49:12.321Z,2.40
2023-07-25T07:51:40.163Z,2.20
2023-07-25T07:54:08.017Z,2.08
2023-07-25T07:56:35.880Z,2.40
2023-07-25T07:59:03.705Z,2.28
2023-07-25T08:01:33.659Z,2.28
2023-07-25T08:04:03.830Z,2.00
2023-07-25T08:06:32.288Z,2.33
2023-07-25T08:09:00.468Z,2.40
2023-07-25T08:11:31.364Z,2.17
2023-07-25T08:14:01.414Z,2.30
2023-07-25T08:16:32.928Z,2.15
2023-07-25T08:19:00.765Z,2.00
2023-07-25T08:21:28.657Z,2.13
2023-07-25T08:23:56.696Z,2.30
2023-07-25T08:26:26.953Z,1.90
2023-07-25T08:28:57.185Z,1.63
2023-07-25T08:31:25.050Z,2.05
2023-07-25T08:33:54.271Z,1.75
2023-07-25T08:36:22.175Z,1.75
2023-07-25T08:38:51.949Z,1.88
2023-07-25T08:41:24.124Z,1.55
2023-07-25T08:43:56.926Z,1.60
2023-07-25T08:46:29.039Z,1.80
2023-07-25T08:49:03.034Z,1.50
2023-07-25T08:51:36.178Z,1.60
2023-07-25T08:54:21.822Z,1.90
2023-07-25T08:56:50.430Z,1.75
2023-07-25T08:59:21.591Z,1.58
2023-07-25T09:01:49.488Z,2.08
2023-07-25T09:04:21.537Z,1.77
2023-07-25T09:06:52.025Z,1.98
2023-07-25T09:09:20.418Z,2.30
2023-07-25T09:11:48.278Z,2.22
2023-07-25T09:14:16.281Z,2.20
2023-07-25T09:16:44.633Z,2.10
2023-07-25T09:19:13.530Z,2.10
2023-07-25T09:21:50.708Z,2.35
2023-07-25T09:24:18.941Z,2.20
2023-07-25T09:26:52.699Z,2.03
2023-07-25T09:29:21.924Z,2.67
2023-07-25T09:31:50.040Z,2.22
2023-07-25T09:34:19.285Z,1.88
2023-07-25T09:36:49.533Z,1.70
2023-07-25T09:39:17.780Z,2.42
2023-07-25T09:41:46.778Z,2.10
2023-07-25T09:44:15.060Z,2.15
2023-07-25T09:46:53.098Z,2.00
2023-07-25T09:49:24.056Z,2.28
2023-07-25T09:52:05.325Z,2.88
2023-07-25T09:54:33.195Z,1.92
2023-07-25T09:57:04.721Z,2.20
2023-07-25T09:59:32.858Z,2.50
2023-07-25T10:02:00.948Z,2.15
2023-07-25T10:04:29.138Z,2.33
2023-07-25T10:06:58.514Z,2.00
2023-07-25T10:09:30.044Z,1.70
2023-07-25T10:11:58.587Z,1.90
2023-07-25T10:14:26.562Z,2.00
2023-07-25T10:16:54.679Z,2.38
2023-07-25T10:19:22.674Z,2.80
2023-07-25T10:21:51.824Z,2.25
2023-07-25T10:24:21.031Z,1.88
2023-07-25T10:26:58.652Z,2.10
2023-07-25T10:29:40.666Z,2.45
2023-07-25T10:32:11.735Z,2.00
2023-07-25T10:34:48.391Z,1.90
2023-07-25T10:37:24.397Z,1.90
2023-07-25T10:40:10.620Z,2.08
2023-07-25T10:43:04.981Z,1.80
2023-07-25T10:45:54.140Z,2.00
2023-07-25T10:48:32.657Z,1.85
2023-07-25T10:51:02.202Z,2.10
2023-07-25T10:53:30.193Z,1.77
2023-07-25T10:56:14.219Z,1.80
2023-07-25T10:59:10.508Z,2.10
2023-07-25T11:01:45.842Z,1.90
2023-07-25T11:04:33.363Z,1.83
2023-07-25T11:07:11.592Z,1.77
2023-07-25T11:09:44.223Z,2.20
2023-07-25T11:12:14.193Z,1.60
2023-07-25T11:14:44.677Z,1.73
2023-07-25T11:17:14.849Z,1.83
2023-07-25T11:19:42.942Z,1.40
2023-07-25T11:22:12.588Z,1.77
2023-07-25T11:24:44.435Z,1.67
2023-07-25T11:27:13.059Z,1.80
2023-07-25T11:29:41.098Z,1.45
2023-07-25T11:32:11.298Z,1.83
2023-07-25T11:34:43.421Z,2.00
2023-07-25T11:37:12.753Z,1.40
2023-07-25T11:39:42.660Z,2.10
2023-07-25T11:42:10.517Z,1.30
2023-07-25T11:44:39.018Z,1.60
2023-07-25T11:47:08.581Z,1.83
2023-07-25T11:49:49.679Z,1.50
2023-07-25T11:52:24.137Z,1.60
2023-07-25T11:54:52.564Z,2.00
2023-07-25T11:57:21.760Z,1.50
2023-07-25T11:59:55.425Z,1.48
2023-07-25T12:02:25.979Z,1.45
2023-07-25T12:04:55.352Z,1.67
2023-07-25T12:07:23.197Z,1.33
2023-07-25T12:09:58.528Z,1.52
2023-07-25T12:12:26.564Z,1.50
2023-07-25T12:15:04.398Z,1.42
2023-07-25T12:17:45.217Z,1.50
2023-07-25T12:20:21.133Z,1.40
2023-07-25T12:22:49.360Z,1.20
2023-07-25T12:25:19.707Z,1.20
2023-07-25T12:27:48.711Z,1.33
2023-07-25T12:30:17.432Z,1.25
2023-07-25T12:32:45.766Z,1.25
2023-07-25T12:35:13.726Z,0.93
2023-07-25T12:37:43.056Z,1.10
2023-07-25T12:40:11.615Z,1.20
2023-07-25T12:42:39.464Z,1.30
2023-07-25T12:45:11.035Z,1.30
2023-07-25T12:47:39.574Z,1.20
2023-07-25T12:50:09.696Z,1.15
2023-07-25T12:52:37.700Z,1.33
2023-07-25T12:55:07.644Z,1.10
2023-07-25T12:57:38.538Z,1.20
2023-07-25T13:00:08.677Z,1.40
2023-07-25T13:02:37.853Z,1.08
2023-07-25T13:05:07.382Z,1.33
2023-07-25T13:07:37.474Z,1.38
2023-07-25T13:10:08.554Z,1.17
2023-07-25T13:12:36.606Z,1.40
2023-07-25T13:15:05.048Z,1.40
2023-07-25T13:17:33.555Z,1.60
2023-07-25T13:20:03.037Z,1.70
2023-07-25T13:22:33.493Z,1.40
2023-07-25T13:25:07.812Z,1.60
2023-07-25T13:27:43.618Z,1.35
2023-07-25T13:30:12.354Z,1.27
2023-07-25T13:32:40.883Z,1.42
2023-07-25T13:35:12.153Z,1.60
2023-07-25T13:37:40.628Z,1.42
2023-07-25T13:40:10.925Z,1.40
2023-07-25T13:42:39.191Z,1.60
2023-07-25T13:45:09.692Z,1.50
2023-07-25T13:47:40.947Z,1.63
2023-07-25T13:50:10.059Z,1.52
2023-07-25T13:52:40.471Z,1.50
2023-07-25T13:55:09.255Z,1.50
2023-07-25T13:57:52.518Z,1.35
2023-07-25T14:00:22.763Z,1.33
2023-07-25T14:02:51.023Z,1.40
2023-07-25T14:05:19.368Z,1.38
2023-07-25T14:07:47.928Z,1.60
2023-07-25T14:10:16.193Z,1.50
2023-07-25T14:12:44.420Z,1.70
2023-07-25T14:15:12.804Z,1.38
2023-07-25T14:17:42.380Z,1.60
2023-07-25T14:20:11.245Z,1.38
2023-07-25T14:22:39.421Z,1.63
2023-07-25T14:25:14.510Z,1.70
2023-07-25T14:27:43.115Z,1.60
2023-07-25T14:30:23.662Z,1.50
2023-07-25T14:33:01.029Z,1.58
2023-07-25T14:35:36.113Z,1.40
2023-07-25T14:38:08.036Z,1.27
2023-07-25T14:40:47.501Z,1.40
2023-07-25T14:43:25.657Z,1.05
2023-07-25T14:45:54.245Z,0.80
2023-07-25T14:48:24.276Z,1.20
2023-07-25T14:50:53.074Z,1.25
2023-07-25T14:53:23.636Z,1.00
2023-07-25T14:55:51.863Z,1.15
2023-07-25T14:58:21.140Z,1.13
2023-07-25T15:00:49.444Z,1.15
2023-07-25T15:03:18.013Z,1.00
2023-07-25T15:05:50.459Z,0.90
2023-07-25T15:08:18.930Z,0.88
2023-07-25T15:10:48.486Z,1.00
2023-07-25T15:13:16.758Z,0.80
2023-07-25T15:15:45.136Z,1.10
2023-07-25T15:18:13.428Z,0.90
2023-07-25T15:20:41.859Z,1.00
2023-07-25T15:23:13.394Z,1.00
2023-07-25T15:25:42.026Z,1.20
2023-07-25T15:28:10.268Z,1.08
2023-07-25T15:30:38.715Z,1.05
2023-07-25T15:33:07.380Z,1.00
2023-07-25T15:35:47.395Z,1.10
2023-07-25T15:38:24.877Z,1.10
2023-07-25T15:40:53.626Z,1.20
2023-07-25T15:43:31.519Z,1.13
2023-07-25T15:46:10.406Z,1.30
2023-07-25T15:48:39.001Z,1.10
2023-07-25T15:51:10.159Z,1.08
2023-07-25T15:53:40.100Z,1.30
2023-07-25T15:56:14.409Z,1.10
2023-07-25T15:58:42.657Z,1.10
2023-07-25T16:01:10.938Z,1.20
2023-07-25T16:03:39.408Z,1.10
2023-07-25T16:06:13.595Z,1.17
2023-07-25T16:08:43.373Z,1.08
2023-07-25T16:11:20.080Z,1.15
2023-07-25T16:13:49.532Z,1.08
2023-07-25T16:16:26.807Z,1.30
2023-07-25T16:18:59.374Z,1.08
2023-07-25T16:21:28.527Z,1.20
2023-07-25T16:24:02.526Z,1.20
2023-07-25T16:26:30.921Z,1.38
2023-07-25T16:29:04.156Z,1.50
2023-07-25T16:31:33.657Z,1.30
2023-07-25T16:34:08.005Z,1.30
2023-07-25T16:36:36.937Z,1.40
2023-07-25T16:39:09.656Z,1.17
2023-07-25T16:41:38.244Z,1.60
2023-07-25T16:44:11.181Z,1.20
2023-07-25T16:46:39.808Z,1.30
2023-07-25T16:49:08.089Z,1.50
2023-07-25T16:51:36.314Z,1.73
2023-07-25T16:54:04.620Z,1.52
2023-07-25T16:56:34.485Z,1.42
2023-07-25T16:59:02.927Z,1.60
2023-07-25T17:01:33.581Z,1.30
2023-07-25T17:04:02.134Z,1.40
2023-07-25T17:06:30.380Z,1.35
2023-07-25T17:08:58.599Z,1.50
2023-07-25T17:11:26.779Z,1.55
2023-07-25T17:13:59.382Z,1.13
2023-07-25T17:16:27.687Z,1.30
2023-07-25T17:18:57.490Z,1.50
2023-07-25T17:21:39.261Z,1.40
2023-07-25T17:24:08.898Z,1.52
2023-07-25T17:26:37.528Z,1.48
2023-07-25T17:29:07.646Z,1.50
2023-07-25T17:31:36.204Z,1.30
2023-07-25T17:34:05.168Z,1.55
2023-07-25T17:36:33.331Z,1.67
2023-07-25T17:39:01.731Z,1.33
2023-07-25T17:41:33.013Z,1.58
2023-07-25T17:44:01.367Z,1.45
2023-07-25T17:46:30.970Z,1.30
2023-07-25T17:49:01.205Z,1.65
2023-07-25T17:51:30.123Z,1.75
2023-07-25T17:53:58.634Z,1.20
2023-07-25T17:56:26.839Z,1.60
2023-07-25T17:58:55.072Z,1.67
2023-07-25T18:01:23.377Z,1.55
2023-07-25T18:03:53.237Z,1.52
2023-07-25T18:06:21.564Z,1.80
2023-07-25T18:08:49.749Z,1.75
2023-07-25T18:11:20.272Z,1.80
2023-07-25T18:13:48.523Z,1.48
2023-07-25T18:16:16.809Z,1.88
2023-07-25T18:18:47.532Z,1.92
2023-07-25T18:21:17.109Z,1.73
2023-07-25T18:23:45.467Z,1.60
2023-07-25T18:26:13.834Z,1.77
2023-07-25T18:28:42.152Z,1.92
2023-07-25T18:31:10.666Z,2.00
2023-07-25T18:33:39.719Z,1.80
2023-07-25T18:36:08.541Z,1.63
2023-07-25T18:38:38.029Z,1.70
2023-07-25T18:41:06.272Z,1.80
2023-07-25T18:43:35.745Z,1.35
2023-07-25T18:46:03.930Z,1.85
2023-07-25T18:48:33.385Z,1.80
2023-07-25T18:51:04.124Z,1.30
2023-07-25T18:53:32.345Z,1.60
2023-07-25T18:56:03.344Z,1.40
2023-07-25T18:58:31.577Z,1.92
2023-07-25T19:01:02.260Z,1.58
2023-07-25T19:03:30.726Z,1.73
2023-07-25T19:05:59.141Z,1.50
2023-07-25T19:08:29.500Z,1.60
2023-07-25T19:10:57.683Z,1.48
2023-07-25T19:13:30.834Z,1.50
2023-07-25T19:15:59.049Z,1.42
2023-07-25T19:18:27.489Z,1.30
2023-07-25T19:20:55.736Z,1.70
2023-07-25T19:23:27.273Z,1.70
2023-07-25T19:25:59.340Z,1.70
2023-07-25T19:28:30.094Z,1.88
2023-07-25T19:31:00.819Z,1.50
2023-07-25T19:33:29.571Z,1.70
2023-07-25T19:36:00.435Z,1.83
2023-07-25T19:38:29.778Z,1.60
2023-07-25T19:41:00.174Z,1.30
2023-07-25T19:43:30.261Z,1.38
2023-07-25T19:46:04.628Z,1.67
2023-07-25T19:48:32.973Z,1.63
2023-07-25T19:51:09.562Z,1.65
2023-07-25T19:53:37.829Z,1.42
2023-07-25T19:56:06.353Z,1.65
2023-07-25T19:58:36.067Z,1.83
2023-07-25T20:01:07.605Z,1.73
2023-07-25T20:03:36.023Z,1.23
2023-07-25T20:06:04.330Z,1.70
2023-07-25T20:08:33.841Z,1.63
2023-07-25T20:11:04.363Z,1.50
2023-07-25T20:13:32.784Z,1.52
2023-07-25T20:16:02.631Z,1.80
2023-07-25T20:18:32.523Z,1.73
2023-07-25T20:21:02.792Z,1.48
2023-07-25T20:23:36.132Z,1.65
2023-07-25T20:26:04.530Z,1.50
2023-07-25T20:28:36.688Z,1.65
2023-07-25T20:31:08.126Z,1.50
2023-07-25T20:33:36.372Z,1.50
2023-07-25T20:36:04.921Z,1.35
2023-07-25T20:38:33.659Z,1.60
2023-07-25T20:41:01.933Z,1.60
2023-07-25T20:43:30.143Z,1.75
2023-07-25T20:46:03.491Z,1.67
2023-07-25T20:48:35.686Z,1.33
2023-07-25T20:51:06.327Z,1.45
2023-07-25T20:53:34.562Z,2.00
2023-07-25T20:56:03.195Z,1.50
2023-07-25T20:58:31.448Z,1.33
2023-07-25T21:00:59.658Z,1.40
2023-07-25T21:03:30.180Z,1.45
2023-07-25T21:06:00.048Z,1.80
2023-07-25T21:08:28.264Z,1.90
2023-07-25T21:10:56.461Z,1.60
2023-07-25T21:13:24.690Z,1.63
2023-07-25T21:15:53.025Z,1.50
2023-07-25T21:18:21.212Z,1.98
2023-07-25T21:20:49.562Z,2.05
2023-07-25T21:23:23.457Z,1.90
2023-07-25T21:25:52.359Z,1.90
2023-07-25T21:28:21.777Z,1.80
2023-07-25T21:30:50.153Z,1.95
2023-07-25T21:33:18.466Z,1.80
2023-07-25T21:35:46.665Z,2.00
2023-07-25T21:38:15.020Z,2.05
2023-07-25T21:40:53.908Z,1.98
2023-07-25T21:43:23.429Z,2.00
2023-07-25T21:45:51.609Z,2.28
2023-07-25T21:48:19.836Z,2.35
2023-07-25T21:50:51.860Z,2.25
2023-07-25T21:53:20.095Z,1.88
2023-07-25T21:55:54.736Z,2.30
2023-07-25T21:58:23.301Z,1.80
2023-07-25T22:00:53.538Z,2.15
2023-07-25T22:03:22.007Z,2.28
2023-07-25T22:05:49.884Z,2.00
2023-07-25T22:08:19.629Z,2.30
2023-07-25T22:10:49.174Z,2.13
2023-07-25T22:13:19.816Z,2.00
2023-07-25T22:15:47.689Z,2.22
2023-07-25T22:18:25.854Z,2.20
2023-07-25T22:20:53.648Z,2.35
2023-07-25T22:23:21.995Z,2.03
2023-07-25T22:25:51.682Z,1.92
2023-07-25T22:28:19.512Z,2.10
2023-07-25T22:30:47.553Z,2.10
2023-07-25T22:33:15.410Z,1.98
2023-07-25T22:35:43.316Z,1.95
2023-07-25T22:38:13.431Z,2.10
2023-07-25T22:40:41.602Z,2.33
2023-07-25T22:43:12.070Z,1.90
2023-07-25T22:45:40.585Z,2.30
2023-07-25T22:48:09.833Z,1.90
2023-07-25T22:50:37.714Z,2.13
2023-07-25T22:53:05.580Z,2.15
2023-07-25T22:55:40.699Z,2.05
2023-07-25T22:58:10.169Z,1.80
2023-07-25T23:00:38.383Z,1.60
2023-07-25T23:03:06.521Z,2.05
2023-07-25T23:05:34.950Z,2.15
2023-07-25T23:08:02.753Z,1.88
2023-07-25T23:10:30.586Z,1.80
2023-07-25T23:13:02.692Z,2.08
2023-07-25T23:15:31.860Z,2.38
2023-07-25T23:18:07.419Z,1.70
2023-07-25T23:20:35.261Z,2.17
2023-07-25T23:23:12.062Z,2.28
2023-07-25T23:25:39.971Z,2.10
2023-07-25T23:28:09.837Z,2.00
2023-07-25T23:30:39.159Z,2.40
2023-07-25T23:33:07.225Z,2.25
2023-07-25T23:35:35.201Z,2.17
2023-07-25T23:38:03.357Z,2.50
2023-07-25T23:40:35.293Z,2.50
2023-07-25T23:43:05.782Z,1.98
2023-07-25T23:45:35.103Z,2.22
2023-07-25T23:48:05.064Z,2.22
2023-07-25T23:50:32.958Z,2.45
2023-07-25T23:53:00.847Z,2.17
2023-07-25T23:55:29.003Z,2.30
2023-07-25T23:58:00.848Z,2.30
